ADDS TAF Board (Experimental) INFO Settings
IDs: Format: Expanded Condensed

KMEM - Memphis Intl, TN, US

Issued at 1530 UTC 01 Aug 2015
Updated at: 1610 UTC 01 Aug 2015
Time1554Z 01/17Z 01/18Z 01/19Z 01/20Z 01/21Z 01/22Z 01/23Z 02/00Z 02/01Z 02/02Z 02/03Z 02/04Z 02/05Z
Type OBS PRVL PRVL PRVL PRVL PRVL PRVL PRVL PRVL PRVL PRVL PRVL PRVL PRVL
VIS 10 >6 >6 >6 >6 >6 >6 >6 >6 >6 >6 >6 >6 >6
CIG -- -- -- -- -- -- -- -- -- -- -- -- -- --
Cover FEW SKC SKC SKC SKC SKC SKC SKC SKC SKC SKC SKC SKC SKC
FltCat VFR VFR VFR VFR VFR VFR VFR VFR VFR VFR VFR VFR VFR VFR
WX -- -- -- -- -- -- -- -- -- -- -- -- -- --
WDir 360 20 20 20 20 20 20 20 20 40 40 40 40 40
WSpd 5 7 7 7 7 7 7 7 7 4 4 4 4 4
WGst -- -- -- -- -- -- -- -- -- -- -- -- -- --
R09/27
XWnd 5 7 7 7 7 7 7 7 7 3 3 3 3 3
HWnd -0 2 2 2 2 2 2 2 2 2 2 2 2 2
R18/36
XWnd 0 3 3 3 3 3 3 3 3 3 3 3 3 3
HWnd -5 -7 -7 -7 -7 -7 -7 -7 -7 -3 -3 -3 -3 -3

NOTE: TEMPO conditions in [brackets]. Keep in mind TEMPO conditions might be better (lower impact) than prevailing conditions.

Raw TAF
KMEM 011530Z 0115/0212 02007KT P6SM SKC
  FM020100 04004KT P6SM SKC


Raw METAR
KMEM 011554Z 36005KT 10SM FEW250 33/18 A3004 RMK AO2 SLP168 T03280183
KMEM 011454Z 05004KT 10SM CLR 32/19 A3004 RMK AO2 SLP167 T03170194 58002
KMEM 011354Z 00000KT 10SM FEW250 29/20 A3004 RMK AO2 SLP167 T02940200

METAR Board
Radar Display
Forecast Discussion

TAF Board Legend

Potential Impact
Threat None Slight Moderate High
Visibility (sm) ≥5.1 5.1>X≥3 3>X≥1 <1
Ceiling (100 ft) ≥30.1 30.1>X≥10 10>X≥5 <5
Wind Speed (kt) <10 10≤X<20 20≤X<30 ≥30
Wind Gust (kt) <15 15≤X<25 25≤X<35 ≥35
Weather No Wx Reported VCTS,-TS,-FZRA,SN TS,FZRA +TS,+FZRA,+SN